CYQU

Grande Prairie

Airport
ICAO code
CYQU
Summary
ICAO Region
NAM
ICAO Territory
Location

Grande Prairie, Alberta,

Coordinates
55° 10' 47" N , 118° 53' 6" W
KCC
Dfc
Metar
Observation
CYQU 110500Z 15004KT 25SM FEW240 21/10 A2994 RMK CI1 SLP142 DENSITY ALT 3400FT
Station
Grande Prairie, Alta.
Date/Time
2022-08-11 05:00:00
Wind direction
150°
Wind speed
04 kts
Lowest cloud amount
few clouds
Temperature
21°C
Dew point
10°C
Humidity
49%
Weather condition
n/a

Description

Grande Prairie Airport is located 3 nm west northwest of Grande Prairie, Alberta, Canada.

Climatology

Subarctic climate (Köppen climate classification Dfc) - long, usually very cold winters, and short, cool to mild summers.

Runways

Designator Length Width Surface Rops
7/25 1890 61 ASP Yes/Yes
12/30 1981 61 ASP Yes/Yes

Airport map

Aerial View

SKYbrary Partners:

Safety knowledge contributed by: